createdAt,value
2019-04-16T00:02:48.533Z,78.61
2019-04-16T00:05:27.438Z,78.75
2019-04-16T00:07:59.695Z,79.03
2019-04-16T00:10:48.164Z,79.45
2019-04-16T00:13:40.845Z,79.62
2019-04-16T00:16:12.968Z,79.67
2019-04-16T00:18:56.786Z,79.67
2019-04-16T00:21:42.026Z,79.63
2019-04-16T00:24:21.701Z,79.54
2019-04-16T00:26:58.063Z,79.43
2019-04-16T00:29:26.160Z,80.07
2019-04-16T00:32:00.137Z,80.30
2019-04-16T00:34:31.202Z,80.36
2019-04-16T00:37:01.855Z,80.13
2019-04-16T00:39:32.621Z,80.42
2019-04-16T00:42:03.680Z,80.61
2019-04-16T00:44:34.354Z,80.59
2019-04-16T00:47:05.260Z,80.56
2019-04-16T00:49:37.895Z,80.45
2019-04-16T00:52:08.351Z,80.44
2019-04-16T00:54:42.133Z,80.38
2019-04-16T00:57:11.542Z,80.46
2019-04-16T00:59:43.028Z,80.47
2019-04-16T01:02:13.987Z,80.48
2019-04-16T01:04:45.717Z,80.48
2019-04-16T01:07:17.556Z,80.55
2019-04-16T01:09:48.148Z,80.80
2019-04-16T01:12:18.992Z,80.69
2019-04-16T01:14:49.715Z,80.57
2019-04-16T01:17:20.769Z,80.41
2019-04-16T01:19:51.553Z,80.28
2019-04-16T01:22:22.373Z,80.09
2019-04-16T01:24:53.062Z,79.98
2019-04-16T01:27:32.388Z,79.81
2019-04-16T01:30:05.929Z,79.62
2019-04-16T01:33:03.707Z,79.84
2019-04-16T01:35:56.095Z,79.67
2019-04-16T01:38:34.576Z,79.64
2019-04-16T01:41:07.391Z,79.88
2019-04-16T01:43:38.045Z,79.49
2019-04-16T01:46:08.877Z,79.68
2019-04-16T01:48:39.803Z,79.82
2019-04-16T01:51:12.577Z,79.81
2019-04-16T01:53:42.814Z,79.79
2019-04-16T01:56:13.481Z,79.62
2019-04-16T01:58:44.190Z,79.64
2019-04-16T02:01:14.981Z,79.75
2019-04-16T02:03:48.655Z,79.77
2019-04-16T02:06:18.087Z,81.09
2019-04-16T02:08:48.852Z,81.80
2019-04-16T02:11:19.694Z,82.19
2019-04-16T02:13:50.482Z,81.76
2019-04-16T02:16:22.411Z,81.31
2019-04-16T02:18:53.894Z,81.31
2019-04-16T02:21:24.674Z,81.28
2019-04-16T02:23:55.606Z,81.00
2019-04-16T02:26:26.313Z,80.90
2019-04-16T02:28:58.944Z,81.09
2019-04-16T02:31:30.390Z,81.14
2019-04-16T02:34:01.423Z,80.76
2019-04-16T02:36:32.155Z,80.92
2019-04-16T02:39:03.071Z,80.53
2019-04-16T02:41:35.158Z,80.49
2019-04-16T02:44:05.955Z,80.64
2019-04-16T02:46:36.842Z,80.45
2019-04-16T02:49:07.771Z,80.50
2019-04-16T02:51:45.920Z,80.68
2019-04-16T02:54:32.349Z,80.44
2019-04-16T02:57:34.778Z,81.04
2019-04-16T03:00:17.571Z,80.93
2019-04-16T03:02:55.480Z,80.91
2019-04-16T03:05:35.120Z,80.58
2019-04-16T03:08:06.239Z,80.71
2019-04-16T03:10:37.105Z,80.61
2019-04-16T03:13:07.896Z,80.43
2019-04-16T03:16:06.047Z,80.16
2019-04-16T03:18:56.014Z,80.14
2019-04-16T03:21:27.422Z,80.05
2019-04-16T03:23:59.035Z,80.37
2019-04-16T03:26:29.944Z,80.19
2019-04-16T03:29:00.665Z,80.14
2019-04-16T03:31:31.406Z,80.18
2019-04-16T03:34:02.141Z,80.51
2019-04-16T03:36:32.919Z,80.47
2019-04-16T03:39:05.871Z,80.33
2019-04-16T03:41:36.632Z,80.36
2019-04-16T03:44:07.320Z,80.39
2019-04-16T03:46:40.073Z,80.26
2019-04-16T03:49:10.330Z,80.24
2019-04-16T03:51:41.008Z,80.46
2019-04-16T03:54:11.746Z,80.46
2019-04-16T03:56:42.737Z,80.43
2019-04-16T03:59:13.434Z,80.41
2019-04-16T04:01:46.023Z,80.60
2019-04-16T04:04:17.599Z,80.64
2019-04-16T04:06:48.534Z,80.50
2019-04-16T04:09:22.240Z,81.12
2019-04-16T04:11:51.506Z,81.05
2019-04-16T04:14:23.538Z,81.08
2019-04-16T04:16:54.343Z,81.11
2019-04-16T04:19:25.905Z,81.08
2019-04-16T04:21:56.725Z,81.16
2019-04-16T04:24:28.455Z,81.25
2019-04-16T04:26:59.939Z,81.08
2019-04-16T04:29:30.717Z,80.92
2019-04-16T04:32:03.356Z,81.66
2019-04-16T04:34:34.370Z,82.14
2019-04-16T04:37:05.229Z,82.05
2019-04-16T04:39:36.067Z,81.83
2019-04-16T04:42:06.590Z,81.46
2019-04-16T04:44:37.461Z,81.13
2019-04-16T04:47:08.265Z,81.48
2019-04-16T04:49:39.204Z,81.13
2019-04-16T04:52:13.648Z,80.83
2019-04-16T04:54:42.413Z,81.23
2019-04-16T04:57:13.233Z,80.78
2019-04-16T04:59:43.981Z,80.67
2019-04-16T05:02:15.757Z,80.83
2019-04-16T05:04:54.043Z,80.81
2019-04-16T05:07:25.740Z,81.60
2019-04-16T05:09:57.117Z,82.45
2019-04-16T05:12:27.811Z,82.28
2019-04-16T05:14:58.959Z,81.82
2019-04-16T05:17:30.724Z,81.77
2019-04-16T05:20:01.601Z,81.40
2019-04-16T05:22:33.164Z,80.82
2019-04-16T05:25:04.394Z,81.10
2019-04-16T05:27:40.109Z,80.99
2019-04-16T05:30:07.778Z,81.03
2019-04-16T05:32:38.579Z,81.09
2019-04-16T05:35:10.799Z,80.87
2019-04-16T05:37:41.781Z,81.12
2019-04-16T05:40:12.470Z,80.71
2019-04-16T05:42:43.313Z,80.81
2019-04-16T05:45:14.697Z,80.58
2019-04-16T05:47:48.715Z,80.71
2019-04-16T05:50:18.809Z,80.86
2019-04-16T05:52:49.542Z,80.54
2019-04-16T05:55:42.013Z,80.55
2019-04-16T05:58:12.804Z,80.32
2019-04-16T06:00:52.617Z,80.98
2019-04-16T06:03:23.391Z,80.60
2019-04-16T06:05:56.320Z,80.62
2019-04-16T06:08:26.494Z,80.25
2019-04-16T06:10:57.640Z,80.10
2019-04-16T06:13:50.236Z,81.38
2019-04-16T06:16:26.599Z,80.76
2019-04-16T06:19:15.933Z,80.88
2019-04-16T06:22:06.640Z,79.72
2019-04-16T06:24:56.162Z,79.73
2019-04-16T06:27:32.050Z,80.90
2019-04-16T06:30:20.339Z,81.42
2019-04-16T06:32:56.978Z,80.64
2019-04-16T06:35:45.668Z,81.06
2019-04-16T06:38:23.421Z,80.82
2019-04-16T06:41:40.843Z,80.75
2019-04-16T06:44:04.040Z,80.38
2019-04-16T06:47:02.282Z,80.17
2019-04-16T06:50:01.845Z,80.39
2019-04-16T06:52:57.876Z,79.35
2019-04-16T06:55:43.181Z,78.19
2019-04-16T06:58:49.711Z,76.26
2019-04-16T07:01:42.031Z,75.29
2019-04-16T07:04:23.035Z,73.91
2019-04-16T07:07:11.074Z,74.59
2019-04-16T07:09:45.995Z,76.48
2019-04-16T07:12:21.803Z,72.85
2019-04-16T07:14:52.443Z,71.98
2019-04-16T07:17:23.096Z,71.67
2019-04-16T07:19:53.999Z,70.57
2019-04-16T07:22:24.738Z,70.34
2019-04-16T07:24:56.597Z,72.02
2019-04-16T07:27:38.392Z,70.96
2019-04-16T07:30:14.553Z,69.87
2019-04-16T07:33:14.164Z,69.81
2019-04-16T07:35:50.591Z,70.77
2019-04-16T07:38:26.436Z,69.23
2019-04-16T07:41:17.231Z,69.05
2019-04-16T07:44:07.728Z,65.46
2019-04-16T07:46:44.219Z,65.87
2019-04-16T07:49:36.920Z,64.80
2019-04-16T07:52:29.644Z,65.15
2019-04-16T07:55:23.771Z,66.20
2019-04-16T07:57:55.869Z,65.92
2019-04-16T08:00:27.671Z,64.93
2019-04-16T08:02:58.358Z,65.76
2019-04-16T08:05:29.073Z,65.48
2019-04-16T08:07:59.972Z,65.46
2019-04-16T08:10:30.757Z,65.53
2019-04-16T08:13:14.972Z,65.48
2019-04-16T08:15:45.731Z,64.73
2019-04-16T08:18:16.619Z,65.83
2019-04-16T08:21:00.615Z,64.64
2019-04-16T08:23:39.316Z,65.31
2019-04-16T08:26:12.950Z,65.35
2019-04-16T08:28:43.030Z,65.49
2019-04-16T08:31:16.722Z,64.64
2019-04-16T08:33:47.413Z,64.11
2019-04-16T08:36:18.495Z,64.45
2019-04-16T08:38:49.475Z,63.52
2019-04-16T08:41:21.442Z,60.27
2019-04-16T08:43:52.429Z,58.96
2019-04-16T08:46:23.319Z,58.52
2019-04-16T08:48:54.628Z,56.09
2019-04-16T08:51:30.873Z,53.54
2019-04-16T08:53:58.699Z,51.15
2019-04-16T08:56:29.486Z,49.34
2019-04-16T08:59:01.397Z,49.70
2019-04-16T09:01:33.130Z,50.50
2019-04-16T09:04:04.093Z,50.65
2019-04-16T09:06:34.685Z,47.97
2019-04-16T09:09:25.808Z,48.81
2019-04-16T09:12:00.120Z,47.11
2019-04-16T09:14:32.771Z,47.89
2019-04-16T09:17:31.519Z,48.08
2019-04-16T09:20:06.962Z,47.48
2019-04-16T09:22:48.988Z,47.44
2019-04-16T09:25:48.091Z,47.93
2019-04-16T09:28:26.553Z,47.33
2019-04-16T09:31:18.742Z,45.66
2019-04-16T09:33:57.324Z,47.11
2019-04-16T09:36:35.135Z,45.71
2019-04-16T09:39:27.003Z,47.33
2019-04-16T09:41:57.700Z,45.16
2019-04-16T09:44:31.063Z,44.85
2019-04-16T09:47:01.018Z,44.44
2019-04-16T09:49:34.439Z,44.47
2019-04-16T09:52:04.364Z,44.85
2019-04-16T09:54:35.244Z,44.20
2019-04-16T09:57:06.901Z,43.70
2019-04-16T09:59:47.702Z,43.18
2019-04-16T10:02:23.496Z,42.82
2019-04-16T10:04:54.372Z,43.82
2019-04-16T10:07:25.249Z,44.06
2019-04-16T10:09:56.048Z,44.41
2019-04-16T10:12:26.830Z,43.37
2019-04-16T10:14:57.671Z,43.22
2019-04-16T10:17:28.557Z,43.50
2019-04-16T10:19:59.391Z,44.19
2019-04-16T10:22:30.494Z,44.16
2019-04-16T10:25:12.771Z,44.08
2019-04-16T10:27:45.925Z,44.73
2019-04-16T10:30:20.569Z,45.61
2019-04-16T10:32:51.415Z,44.29
2019-04-16T10:35:22.449Z,43.24
2019-04-16T10:37:53.481Z,42.45
2019-04-16T10:40:43.054Z,41.91
2019-04-16T10:43:43.882Z,40.50
2019-04-16T10:46:21.703Z,41.63
2019-04-16T10:49:16.492Z,39.98
2019-04-16T10:51:58.410Z,39.04
2019-04-16T10:54:43.441Z,40.02
2019-04-16T10:57:42.139Z,40.64
2019-04-16T11:00:25.934Z,41.61
2019-04-16T11:03:06.743Z,40.89
2019-04-16T11:05:42.166Z,41.03
2019-04-16T11:08:13.426Z,41.30
2019-04-16T11:10:44.058Z,40.39
2019-04-16T11:13:33.668Z,40.71
2019-04-16T11:16:10.504Z,40.36
2019-04-16T11:18:41.504Z,39.17
2019-04-16T11:21:12.372Z,40.74
2019-04-16T11:23:43.285Z,41.54
2019-04-16T11:26:15.290Z,40.03
2019-04-16T11:28:45.902Z,43.33
2019-04-16T11:31:19.765Z,39.10
2019-04-16T11:33:50.557Z,39.81
2019-04-16T11:36:21.273Z,39.32
2019-04-16T11:38:51.809Z,41.43
2019-04-16T11:41:22.375Z,41.92
2019-04-16T11:43:53.158Z,40.97
2019-04-16T11:46:24.121Z,40.70
2019-04-16T11:48:55.571Z,40.64
2019-04-16T11:51:26.220Z,41.78
2019-04-16T11:53:56.937Z,42.32
2019-04-16T11:56:27.716Z,41.09
2019-04-16T11:58:58.323Z,41.17
2019-04-16T12:01:50.726Z,41.40
2019-04-16T12:04:38.872Z,42.19
2019-04-16T12:07:46.878Z,41.34
2019-04-16T12:10:40.592Z,41.72
2019-04-16T12:13:28.957Z,40.19
2019-04-16T12:16:13.878Z,41.04
2019-04-16T12:18:59.340Z,40.49
2019-04-16T12:21:54.866Z,41.05
2019-04-16T12:24:43.550Z,42.91
2019-04-16T12:27:32.003Z,42.18
2019-04-16T12:30:21.665Z,42.17
2019-04-16T12:33:14.620Z,41.13
2019-04-16T12:36:04.514Z,43.13
2019-04-16T12:38:46.662Z,42.59
2019-04-16T12:41:31.791Z,42.05
2019-04-16T12:44:24.089Z,42.45
2019-04-16T12:47:19.754Z,42.33
2019-04-16T12:50:12.144Z,43.73
2019-04-16T12:53:10.861Z,44.01
2019-04-16T12:56:05.952Z,42.89
2019-04-16T12:58:54.153Z,44.34
2019-04-16T13:01:46.052Z,42.99
2019-04-16T13:04:38.515Z,43.62
2019-04-16T13:07:15.728Z,42.64
2019-04-16T13:10:04.206Z,41.78
2019-04-16T13:12:52.490Z,42.51
2019-04-16T13:15:45.847Z,42.87
2019-04-16T13:18:35.476Z,42.75
2019-04-16T13:21:15.060Z,43.63
2019-04-16T13:24:13.890Z,44.43
2019-04-16T13:27:04.144Z,44.15
2019-04-16T13:29:34.940Z,44.85
2019-04-16T13:32:05.674Z,45.12
2019-04-16T13:34:36.555Z,45.17
2019-04-16T13:37:07.356Z,44.28
2019-04-16T13:39:59.295Z,43.92
2019-04-16T13:42:28.370Z,45.44
2019-04-16T13:45:17.128Z,46.12
2019-04-16T13:47:48.628Z,46.08
2019-04-16T13:50:44.162Z,47.41
2019-04-16T13:53:33.303Z,49.94
2019-04-16T13:56:25.838Z,49.67
2019-04-16T13:59:02.486Z,50.19
2019-04-16T14:01:39.252Z,49.91
2019-04-16T14:04:09.208Z,50.94
2019-04-16T14:06:39.866Z,50.31
2019-04-16T14:09:10.885Z,50.64
2019-04-16T14:11:41.882Z,50.37
2019-04-16T14:14:17.401Z,49.94
2019-04-16T14:16:45.498Z,51.03
2019-04-16T14:19:16.271Z,51.32
2019-04-16T14:21:46.875Z,49.83
2019-04-16T14:24:17.666Z,50.59
2019-04-16T14:26:48.366Z,49.98
2019-04-16T14:29:18.894Z,50.48
2019-04-16T14:31:49.633Z,50.62
2019-04-16T14:34:29.896Z,50.07
2019-04-16T14:37:00.721Z,49.76
2019-04-16T14:39:35.678Z,49.53
2019-04-16T14:42:06.350Z,49.53
2019-04-16T14:44:41.458Z,49.76
2019-04-16T14:47:12.260Z,49.67
2019-04-16T14:49:44.049Z,51.01
2019-04-16T14:52:14.887Z,50.97
2019-04-16T14:54:54.675Z,49.92
2019-04-16T14:57:25.473Z,50.32
2019-04-16T15:00:09.643Z,49.52
2019-04-16T15:02:44.571Z,50.37
2019-04-16T15:05:31.574Z,51.11
2019-04-16T15:08:33.476Z,50.83
2019-04-16T15:11:21.887Z,51.71
2019-04-16T15:14:09.307Z,51.86
2019-04-16T15:16:44.617Z,52.32
2019-04-16T15:19:34.225Z,52.33
2019-04-16T15:22:21.207Z,52.24
2019-04-16T15:25:11.359Z,51.28
2019-04-16T15:27:59.933Z,51.61
2019-04-16T15:30:45.638Z,52.34
2019-04-16T15:33:38.807Z,52.07
2019-04-16T15:36:29.443Z,53.34
2019-04-16T15:39:12.287Z,53.49
2019-04-16T15:42:01.662Z,53.42
2019-04-16T15:44:52.714Z,50.65
2019-04-16T15:47:42.937Z,52.05
2019-04-16T15:50:35.216Z,52.56
2019-04-16T15:53:34.781Z,51.80
2019-04-16T15:56:18.886Z,53.09
2019-04-16T15:58:59.750Z,52.13
2019-04-16T16:02:02.138Z,52.78
2019-04-16T16:04:43.098Z,53.46
2019-04-16T16:07:16.719Z,55.04
2019-04-16T16:10:12.515Z,56.41
2019-04-16T16:12:40.485Z,57.35
2019-04-16T16:15:11.352Z,58.34
2019-04-16T16:17:42.265Z,58.27
2019-04-16T16:20:13.338Z,59.95
2019-04-16T16:22:44.149Z,61.97
2019-04-16T16:25:15.012Z,62.79
2019-04-16T16:27:47.143Z,62.84
2019-04-16T16:30:18.078Z,62.99
2019-04-16T16:32:48.649Z,62.82
2019-04-16T16:35:19.345Z,63.26
2019-04-16T16:37:50.012Z,63.79
2019-04-16T16:40:20.814Z,63.95
2019-04-16T16:42:51.482Z,64.29
2019-04-16T16:45:23.835Z,64.87
2019-04-16T16:47:54.485Z,64.94
2019-04-16T16:50:25.303Z,66.29
2019-04-16T16:53:05.715Z,67.16
2019-04-16T16:55:39.050Z,68.01
2019-04-16T16:58:28.926Z,67.46
2019-04-16T17:01:17.894Z,67.94
2019-04-16T17:03:52.859Z,68.24
2019-04-16T17:06:23.707Z,68.46
2019-04-16T17:08:54.389Z,68.48
2019-04-16T17:11:25.157Z,69.20
2019-04-16T17:13:58.080Z,69.62
2019-04-16T17:16:28.275Z,70.95
2019-04-16T17:18:58.958Z,70.95
2019-04-16T17:21:29.615Z,71.25
2019-04-16T17:24:00.495Z,71.64
2019-04-16T17:26:31.172Z,71.73
2019-04-16T17:29:02.159Z,72.01
2019-04-16T17:31:35.861Z,73.14
2019-04-16T17:34:05.515Z,73.73
2019-04-16T17:36:37.409Z,73.25
2019-04-16T17:39:10.709Z,73.25
2019-04-16T17:41:49.319Z,73.87
2019-04-16T17:44:37.614Z,74.24
2019-04-16T17:47:42.524Z,74.81
2019-04-16T17:50:32.339Z,75.16
2019-04-16T17:53:16.069Z,75.38
2019-04-16T17:56:04.883Z,75.87
2019-04-16T17:58:42.152Z,76.70
2019-04-16T18:01:44.497Z,77.96
2019-04-16T18:04:33.115Z,77.37
2019-04-16T18:07:21.585Z,78.65
2019-04-16T18:10:11.107Z,80.06
2019-04-16T18:13:06.869Z,79.02
2019-04-16T18:15:43.477Z,81.34
2019-04-16T18:18:24.773Z,81.08
2019-04-16T18:21:32.976Z,82.29
2019-04-16T18:24:25.892Z,79.78
2019-04-16T18:27:14.633Z,80.44
2019-04-16T18:30:16.666Z,79.20
2019-04-16T18:33:09.393Z,80.22
2019-04-16T18:35:46.395Z,80.25
2019-04-16T18:38:39.114Z,80.94
2019-04-16T18:41:27.860Z,80.77
2019-04-16T18:44:33.135Z,80.39
2019-04-16T18:47:26.031Z,80.21
2019-04-16T18:50:01.116Z,80.01
2019-04-16T18:52:32.166Z,81.00
2019-04-16T18:55:03.134Z,82.06
2019-04-16T18:57:38.341Z,82.35
2019-04-16T19:00:28.661Z,81.95
2019-04-16T19:02:58.577Z,83.07
2019-04-16T19:05:30.789Z,81.83
2019-04-16T19:08:01.639Z,80.35
2019-04-16T19:10:33.546Z,81.33
2019-04-16T19:13:09.711Z,81.49
2019-04-16T19:15:37.349Z,80.46
2019-04-16T19:18:18.867Z,80.08
2019-04-16T19:20:42.198Z,79.91
2019-04-16T19:23:14.061Z,79.87
2019-04-16T19:25:44.893Z,79.92
2019-04-16T19:28:15.790Z,81.02
2019-04-16T19:30:46.563Z,80.35
2019-04-16T19:33:17.504Z,80.42
2019-04-16T19:35:50.984Z,80.82
2019-04-16T19:38:21.074Z,81.61
2019-04-16T19:40:52.596Z,82.71
2019-04-16T19:43:23.931Z,82.33
2019-04-16T19:45:55.664Z,81.72
2019-04-16T19:48:35.275Z,83.12
2019-04-16T19:50:59.247Z,85.03
2019-04-16T19:53:29.842Z,83.87
2019-04-16T19:56:00.820Z,83.18
2019-04-16T19:58:31.618Z,82.66
2019-04-16T20:01:02.761Z,82.15
2019-04-16T20:03:33.805Z,81.95
2019-04-16T20:06:04.860Z,82.32
2019-04-16T20:08:39.866Z,82.52
2019-04-16T20:11:08.540Z,81.94
2019-04-16T20:13:39.458Z,82.32
2019-04-16T20:16:10.237Z,82.00
2019-04-16T20:18:50.902Z,81.62
2019-04-16T20:21:14.118Z,82.00
2019-04-16T20:23:45.185Z,81.57
2019-04-16T20:26:16.014Z,81.80
2019-04-16T20:28:48.466Z,82.85
2019-04-16T20:31:19.754Z,84.12
2019-04-16T20:33:50.789Z,84.91
2019-04-16T20:36:22.703Z,85.94
2019-04-16T20:38:54.356Z,86.73
2019-04-16T20:41:25.139Z,86.38
2019-04-16T20:43:56.020Z,86.37
2019-04-16T20:46:26.802Z,87.25
2019-04-16T20:49:08.142Z,87.21
2019-04-16T20:51:30.539Z,87.44
2019-04-16T20:54:01.613Z,86.34
2019-04-16T20:56:32.414Z,86.57
2019-04-16T20:59:05.230Z,85.38
2019-04-16T21:01:37.767Z,84.40
2019-04-16T21:04:08.910Z,84.35
2019-04-16T21:06:41.902Z,84.16
2019-04-16T21:09:12.384Z,83.80
2019-04-16T21:11:43.268Z,84.10
2019-04-16T21:14:14.167Z,84.73
2019-04-16T21:16:45.034Z,85.54
2019-04-16T21:19:23.193Z,86.23
2019-04-16T21:21:48.964Z,86.88
2019-04-16T21:24:20.887Z,86.13
2019-04-16T21:26:51.902Z,85.78
2019-04-16T21:29:33.425Z,85.73
2019-04-16T21:32:02.741Z,87.02
2019-04-16T21:34:36.976Z,87.79
2019-04-16T21:37:19.909Z,88.02
2019-04-16T21:39:56.254Z,88.35
2019-04-16T21:42:28.307Z,88.56
2019-04-16T21:44:59.481Z,87.47
2019-04-16T21:47:30.287Z,86.00
2019-04-16T21:50:01.352Z,85.10
2019-04-16T21:52:32.168Z,84.55
2019-04-16T21:55:04.825Z,84.52
2019-04-16T21:57:35.686Z,84.68
2019-04-16T22:00:10.480Z,84.49
2019-04-16T22:02:43.096Z,84.32
2019-04-16T22:05:16.900Z,84.34
2019-04-16T22:07:46.563Z,83.59
2019-04-16T22:10:17.339Z,83.85
2019-04-16T22:12:48.755Z,84.40
2019-04-16T22:15:22.620Z,84.09
2019-04-16T22:17:52.345Z,83.93
2019-04-16T22:20:23.165Z,83.99
2019-04-16T22:22:54.093Z,83.88
2019-04-16T22:25:26.904Z,83.97
2019-04-16T22:27:58.556Z,84.37
2019-04-16T22:30:29.414Z,84.58
2019-04-16T22:33:05.479Z,84.09
2019-04-16T22:35:32.728Z,84.13
2019-04-16T22:38:03.521Z,84.27
2019-04-16T22:40:56.640Z,84.32
2019-04-16T22:43:52.072Z,84.04
2019-04-16T22:46:30.253Z,84.10
2019-04-16T22:49:01.805Z,84.17
2019-04-16T22:51:32.802Z,84.56
2019-04-16T22:54:03.730Z,84.70
2019-04-16T22:56:51.285Z,85.70
2019-04-16T22:59:22.103Z,86.60
2019-04-16T23:01:53.586Z,87.43
2019-04-16T23:04:26.162Z,86.45
2019-04-16T23:06:57.100Z,85.99
2019-04-16T23:09:29.545Z,86.02
2019-04-16T23:12:00.260Z,86.73
2019-04-16T23:14:31.732Z,86.40
2019-04-16T23:17:03.777Z,85.64
2019-04-16T23:19:34.565Z,86.14
2019-04-16T23:22:05.457Z,86.79
2019-04-16T23:24:36.339Z,86.84
2019-04-16T23:27:07.564Z,86.33
2019-04-16T23:29:38.681Z,86.13
2019-04-16T23:32:09.854Z,86.46
2019-04-16T23:34:40.706Z,86.29
2019-04-16T23:37:11.598Z,86.06
2019-04-16T23:39:42.498Z,85.49
2019-04-16T23:42:13.271Z,85.38
2019-04-16T23:45:05.707Z,84.86
2019-04-16T23:48:01.915Z,85.16
2019-04-16T23:50:51.822Z,85.36
2019-04-16T23:53:50.715Z,86.58
2019-04-16T23:56:28.515Z,85.90
2019-04-16T23:59:12.562Z,85.69
